sensor_id;sensor_type;location;lat;lon;timestamp;temperature;humidity
6879;DHT22;3478;51.462;7.338;2024-02-26T00:02:57;6.30;99.90
6879;DHT22;3478;51.462;7.338;2024-02-26T00:08:00;6.30;99.90
6879;DHT22;3478;51.462;7.338;2024-02-26T00:13:03;6.30;99.90
6879;DHT22;3478;51.462;7.338;2024-02-26T00:18:05;6.40;99.90
6879;DHT22;3478;51.462;7.338;2024-02-26T00:23:08;6.30;99.90
6879;DHT22;3478;51.462;7.338;2024-02-26T00:28:10;6.30;99.90
6879;DHT22;3478;51.462;7.338;2024-02-26T00:33:16;6.20;99.90
6879;DHT22;3478;51.462;7.338;2024-02-26T00:38:20;6.20;99.90
6879;DHT22;3478;51.462;7.338;2024-02-26T00:43:22;6.10;99.90
6879;DHT22;3478;51.462;7.338;2024-02-26T00:48:24;6.20;99.90
6879;DHT22;3478;51.462;7.338;2024-02-26T00:53:28;6.30;99.90
6879;DHT22;3478;51.462;7.338;2024-02-26T00:58:30;6.30;99.90
6879;DHT22;3478;51.462;7.338;2024-02-26T01:03:32;6.30;99.90
6879;DHT22;3478;51.462;7.338;2024-02-26T01:08:35;6.20;99.90
6879;DHT22;3478;51.462;7.338;2024-02-26T01:13:38;6.30;99.90
6879;DHT22;3478;51.462;7.338;2024-02-26T01:18:40;6.30;99.90
6879;DHT22;3478;51.462;7.338;2024-02-26T01:23:43;6.30;99.90
6879;DHT22;3478;51.462;7.338;2024-02-26T01:28:45;6.30;99.90
6879;DHT22;3478;51.462;7.338;2024-02-26T01:33:47;6.30;99.90
6879;DHT22;3478;51.462;7.338;2024-02-26T01:38:50;6.30;99.90
6879;DHT22;3478;51.462;7.338;2024-02-26T01:43:52;6.20;99.90
6879;DHT22;3478;51.462;7.338;2024-02-26T01:48:54;6.20;99.90
6879;DHT22;3478;51.462;7.338;2024-02-26T01:53:58;6.20;99.90
6879;DHT22;3478;51.462;7.338;2024-02-26T01:59:01;6.10;99.90
6879;DHT22;3478;51.462;7.338;2024-02-26T02:04:04;6.00;99.90
6879;DHT22;3478;51.462;7.338;2024-02-26T02:09:08;6.10;99.90
6879;DHT22;3478;51.462;7.338;2024-02-26T02:14:10;6.10;99.90
6879;DHT22;3478;51.462;7.338;2024-02-26T02:19:12;6.00;99.90
6879;DHT22;3478;51.462;7.338;2024-02-26T02:24:16;6.00;99.90
6879;DHT22;3478;51.462;7.338;2024-02-26T02:29:18;6.00;99.90
6879;DHT22;3478;51.462;7.338;2024-02-26T02:34:21;6.00;99.90
6879;DHT22;3478;51.462;7.338;2024-02-26T02:39:24;5.90;99.90
6879;DHT22;3478;51.462;7.338;2024-02-26T02:44:26;6.00;99.90
6879;DHT22;3478;51.462;7.338;2024-02-26T02:49:28;5.90;99.90
6879;DHT22;3478;51.462;7.338;2024-02-26T02:54:31;5.90;99.90
6879;DHT22;3478;51.462;7.338;2024-02-26T02:59:33;5.90;99.90
6879;DHT22;3478;51.462;7.338;2024-02-26T03:04:35;5.90;99.90
6879;DHT22;3478;51.462;7.338;2024-02-26T03:09:38;5.90;99.90
6879;DHT22;3478;51.462;7.338;2024-02-26T03:14:41;5.90;99.90
6879;DHT22;3478;51.462;7.338;2024-02-26T03:19:44;5.80;99.90
6879;DHT22;3478;51.462;7.338;2024-02-26T03:24:48;5.80;99.90
6879;DHT22;3478;51.462;7.338;2024-02-26T03:29:50;5.80;99.90
6879;DHT22;3478;51.462;7.338;2024-02-26T03:34:53;5.80;99.90
6879;DHT22;3478;51.462;7.338;2024-02-26T03:39:57;5.80;99.90
6879;DHT22;3478;51.462;7.338;2024-02-26T03:44:59;5.80;99.90
6879;DHT22;3478;51.462;7.338;2024-02-26T03:50:01;5.70;99.90
6879;DHT22;3478;51.462;7.338;2024-02-26T03:55:07;5.70;99.90
6879;DHT22;3478;51.462;7.338;2024-02-26T04:00:11;5.60;99.90
6879;DHT22;3478;51.462;7.338;2024-02-26T04:05:13;5.60;99.90
6879;DHT22;3478;51.462;7.338;2024-02-26T04:10:16;5.50;99.90
6879;DHT22;3478;51.462;7.338;2024-02-26T04:15:18;5.40;99.90
6879;DHT22;3478;51.462;7.338;2024-02-26T04:20:20;5.30;99.90
6879;DHT22;3478;51.462;7.338;2024-02-26T04:25:23;5.30;99.90
6879;DHT22;3478;51.462;7.338;2024-02-26T04:30:25;5.30;99.90
6879;DHT22;3478;51.462;7.338;2024-02-26T04:35:27;5.20;99.90
6879;DHT22;3478;51.462;7.338;2024-02-26T04:40:31;5.20;99.90
6879;DHT22;3478;51.462;7.338;2024-02-26T04:45:32;5.20;99.90
6879;DHT22;3478;51.462;7.338;2024-02-26T04:50:34;5.20;99.90
6879;DHT22;3478;51.462;7.338;2024-02-26T04:55:38;5.30;99.90
6879;DHT22;3478;51.462;7.338;2024-02-26T05:00:39;5.30;99.90
6879;DHT22;3478;51.462;7.338;2024-02-26T05:05:42;5.30;99.90
6879;DHT22;3478;51.462;7.338;2024-02-26T05:10:46;5.20;99.90
6879;DHT22;3478;51.462;7.338;2024-02-26T05:15:48;5.20;99.90
6879;DHT22;3478;51.462;7.338;2024-02-26T05:20:52;5.20;99.90
6879;DHT22;3478;51.462;7.338;2024-02-26T05:25:56;5.20;99.90
6879;DHT22;3478;51.462;7.338;2024-02-26T05:30:58;5.10;99.90
6879;DHT22;3478;51.462;7.338;2024-02-26T05:36:00;5.10;99.90
6879;DHT22;3478;51.462;7.338;2024-02-26T05:41:05;5.00;99.90
6879;DHT22;3478;51.462;7.338;2024-02-26T05:46:08;5.00;99.90
6879;DHT22;3478;51.462;7.338;2024-02-26T05:51:10;5.00;99.90
6879;DHT22;3478;51.462;7.338;2024-02-26T06:01:32;5.00;99.90
6879;DHT22;3478;51.462;7.338;2024-02-26T06:06:34;5.00;99.90
6879;DHT22;3478;51.462;7.338;2024-02-26T06:11:37;5.00;99.90
6879;DHT22;3478;51.462;7.338;2024-02-26T06:16:39;5.00;99.90
6879;DHT22;3478;51.462;7.338;2024-02-26T06:21:41;5.10;99.90
6879;DHT22;3478;51.462;7.338;2024-02-26T06:26:45;5.10;99.90
6879;DHT22;3478;51.462;7.338;2024-02-26T06:31:47;5.10;99.90
6879;DHT22;3478;51.462;7.338;2024-02-26T06:36:51;5.20;99.90
6879;DHT22;3478;51.462;7.338;2024-02-26T06:41:54;5.20;99.90
6879;DHT22;3478;51.462;7.338;2024-02-26T06:47:01;5.30;99.90
6879;DHT22;3478;51.462;7.338;2024-02-26T06:52:03;5.30;99.90
6879;DHT22;3478;51.462;7.338;2024-02-26T06:57:07;5.30;99.90
6879;DHT22;3478;51.462;7.338;2024-02-26T07:02:09;5.30;99.90
6879;DHT22;3478;51.462;7.338;2024-02-26T07:07:10;5.30;99.90
6879;DHT22;3478;51.462;7.338;2024-02-26T07:12:14;5.30;99.90
6879;DHT22;3478;51.462;7.338;2024-02-26T07:17:16;5.30;99.90
6879;DHT22;3478;51.462;7.338;2024-02-26T07:22:18;5.20;99.90
6879;DHT22;3478;51.462;7.338;2024-02-26T07:27:22;5.20;99.90
6879;DHT22;3478;51.462;7.338;2024-02-26T07:32:24;5.30;99.90
6879;DHT22;3478;51.462;7.338;2024-02-26T07:37:26;5.30;99.90
6879;DHT22;3478;51.462;7.338;2024-02-26T07:42:29;5.30;99.90
6879;DHT22;3478;51.462;7.338;2024-02-26T07:47:31;5.30;99.90
6879;DHT22;3478;51.462;7.338;2024-02-26T07:52:35;5.30;99.90
6879;DHT22;3478;51.462;7.338;2024-02-26T07:57:42;5.30;99.90
6879;DHT22;3478;51.462;7.338;2024-02-26T08:02:44;5.30;99.90
6879;DHT22;3478;51.462;7.338;2024-02-26T08:07:46;5.30;99.90
6879;DHT22;3478;51.462;7.338;2024-02-26T08:12:49;5.40;99.90
6879;DHT22;3478;51.462;7.338;2024-02-26T08:17:51;5.40;99.90
6879;DHT22;3478;51.462;7.338;2024-02-26T08:22:53;5.40;99.90
6879;DHT22;3478;51.462;7.338;2024-02-26T08:27:57;5.40;99.90
6879;DHT22;3478;51.462;7.338;2024-02-26T08:32:59;5.40;99.90
6879;DHT22;3478;51.462;7.338;2024-02-26T08:38:01;5.50;99.90
6879;DHT22;3478;51.462;7.338;2024-02-26T08:43:04;5.50;99.90
6879;DHT22;3478;51.462;7.338;2024-02-26T08:48:07;5.50;99.90
6879;DHT22;3478;51.462;7.338;2024-02-26T08:53:09;5.60;99.90
6879;DHT22;3478;51.462;7.338;2024-02-26T08:58:12;5.70;99.90
6879;DHT22;3478;51.462;7.338;2024-02-26T09:03:14;5.70;99.90
6879;DHT22;3478;51.462;7.338;2024-02-26T09:08:16;5.90;99.90
6879;DHT22;3478;51.462;7.338;2024-02-26T09:13:19;5.90;99.90
6879;DHT22;3478;51.462;7.338;2024-02-26T09:18:22;5.90;99.90
6879;DHT22;3478;51.462;7.338;2024-02-26T09:23:23;6.00;99.90
6879;DHT22;3478;51.462;7.338;2024-02-26T09:28:27;5.90;99.90
6879;DHT22;3478;51.462;7.338;2024-02-26T09:33:32;5.90;99.90
6879;DHT22;3478;51.462;7.338;2024-02-26T09:38:34;5.90;99.90
6879;DHT22;3478;51.462;7.338;2024-02-26T09:43:43;6.00;99.90
6879;DHT22;3478;51.462;7.338;2024-02-26T09:48:47;6.10;99.90
6879;DHT22;3478;51.462;7.338;2024-02-26T09:53:51;6.20;99.90
6879;DHT22;3478;51.462;7.338;2024-02-26T09:58:56;6.30;99.90
6879;DHT22;3478;51.462;7.338;2024-02-26T10:03:58;6.30;99.90
6879;DHT22;3478;51.462;7.338;2024-02-26T10:09:01;6.40;99.90
6879;DHT22;3478;51.462;7.338;2024-02-26T10:14:08;6.40;99.90
6879;DHT22;3478;51.462;7.338;2024-02-26T10:19:25;6.50;99.90
6879;DHT22;3478;51.462;7.338;2024-02-26T10:24:28;6.60;99.90
6879;DHT22;3478;51.462;7.338;2024-02-26T10:29:32;6.70;99.90
6879;DHT22;3478;51.462;7.338;2024-02-26T10:34:35;6.80;99.90
6879;DHT22;3478;51.462;7.338;2024-02-26T10:39:38;6.70;99.90
6879;DHT22;3478;51.462;7.338;2024-02-26T10:44:41;6.80;99.90
6879;DHT22;3478;51.462;7.338;2024-02-26T10:49:47;6.90;99.90
6879;DHT22;3478;51.462;7.338;2024-02-26T10:54:50;6.90;99.90
6879;DHT22;3478;51.462;7.338;2024-02-26T10:59:56;7.00;99.90
6879;DHT22;3478;51.462;7.338;2024-02-26T11:04:59;7.10;99.90
6879;DHT22;3478;51.462;7.338;2024-02-26T11:10:03;7.30;99.90
6879;DHT22;3478;51.462;7.338;2024-02-26T11:15:08;7.40;99.90
6879;DHT22;3478;51.462;7.338;2024-02-26T11:20:11;7.50;99.90
6879;DHT22;3478;51.462;7.338;2024-02-26T11:25:14;7.60;99.90
6879;DHT22;3478;51.462;7.338;2024-02-26T11:30:19;7.60;99.90
6879;DHT22;3478;51.462;7.338;2024-02-26T11:35:23;7.70;99.90
6879;DHT22;3478;51.462;7.338;2024-02-26T11:40:26;7.90;99.90
6879;DHT22;3478;51.462;7.338;2024-02-26T11:45:51;8.20;99.90
6879;DHT22;3478;51.462;7.338;2024-02-26T11:50:55;8.40;99.90
6879;DHT22;3478;51.462;7.338;2024-02-26T11:56:15;8.60;99.90
6879;DHT22;3478;51.462;7.338;2024-02-26T12:01:40;8.70;99.90
6879;DHT22;3478;51.462;7.338;2024-02-26T12:06:43;8.90;99.90
6879;DHT22;3478;51.462;7.338;2024-02-26T12:11:47;9.10;99.90
6879;DHT22;3478;51.462;7.338;2024-02-26T12:16:51;9.40;99.90
6879;DHT22;3478;51.462;7.338;2024-02-26T12:22:38;9.40;99.90
6879;DHT22;3478;51.462;7.338;2024-02-26T12:27:25;9.00;99.90
6879;DHT22;3478;51.462;7.338;2024-02-26T12:32:28;8.80;99.90
6879;DHT22;3478;51.462;7.338;2024-02-26T12:37:31;8.60;99.90
6879;DHT22;3478;51.462;7.338;2024-02-26T12:42:34;8.50;99.90
6879;DHT22;3478;51.462;7.338;2024-02-26T12:47:42;8.30;99.90
6879;DHT22;3478;51.462;7.338;2024-02-26T12:52:45;8.50;99.90
6879;DHT22;3478;51.462;7.338;2024-02-26T12:57:47;8.50;99.90
6879;DHT22;3478;51.462;7.338;2024-02-26T13:02:53;8.60;99.90
6879;DHT22;3478;51.462;7.338;2024-02-26T13:07:56;8.80;99.90
6879;DHT22;3478;51.462;7.338;2024-02-26T13:13:02;8.70;99.90
6879;DHT22;3478;51.462;7.338;2024-02-26T13:18:11;8.70;99.90
6879;DHT22;3478;51.462;7.338;2024-02-26T13:23:13;8.70;99.90
6879;DHT22;3478;51.462;7.338;2024-02-26T13:28:16;8.90;99.90
6879;DHT22;3478;51.462;7.338;2024-02-26T13:33:21;8.90;99.90
6879;DHT22;3478;51.462;7.338;2024-02-26T13:38:24;9.20;99.90
6879;DHT22;3478;51.462;7.338;2024-02-26T13:43:26;9.10;99.90
6879;DHT22;3478;51.462;7.338;2024-02-26T13:48:29;9.00;99.90
6879;DHT22;3478;51.462;7.338;2024-02-26T13:53:32;9.00;99.90
6879;DHT22;3478;51.462;7.338;2024-02-26T13:58:34;8.90;99.90
6879;DHT22;3478;51.462;7.338;2024-02-26T14:03:38;8.90;99.90
6879;DHT22;3478;51.462;7.338;2024-02-26T14:08:40;9.10;99.90
6879;DHT22;3478;51.462;7.338;2024-02-26T14:13:42;9.30;99.90
6879;DHT22;3478;51.462;7.338;2024-02-26T14:18:45;9.40;99.90
6879;DHT22;3478;51.462;7.338;2024-02-26T14:23:47;9.30;99.90
6879;DHT22;3478;51.462;7.338;2024-02-26T14:28:50;9.30;99.90
6879;DHT22;3478;51.462;7.338;2024-02-26T14:33:53;9.30;99.90
6879;DHT22;3478;51.462;7.338;2024-02-26T14:38:56;9.30;99.90
6879;DHT22;3478;51.462;7.338;2024-02-26T14:43:57;9.00;99.90
6879;DHT22;3478;51.462;7.338;2024-02-26T14:49:01;9.00;99.90
6879;DHT22;3478;51.462;7.338;2024-02-26T14:54:03;8.90;99.90
6879;DHT22;3478;51.462;7.338;2024-02-26T14:59:05;9.00;99.90
6879;DHT22;3478;51.462;7.338;2024-02-26T15:04:08;9.30;99.90
6879;DHT22;3478;51.462;7.338;2024-02-26T15:09:10;9.50;99.90
6879;DHT22;3478;51.462;7.338;2024-02-26T15:14:12;9.40;99.90
6879;DHT22;3478;51.462;7.338;2024-02-26T15:19:16;9.20;99.90
6879;DHT22;3478;51.462;7.338;2024-02-26T15:24:18;9.10;99.90
6879;DHT22;3478;51.462;7.338;2024-02-26T15:29:20;9.10;99.90
6879;DHT22;3478;51.462;7.338;2024-02-26T15:34:24;8.90;99.90
6879;DHT22;3478;51.462;7.338;2024-02-26T15:39:26;8.60;99.90
6879;DHT22;3478;51.462;7.338;2024-02-26T15:44:27;8.40;99.90
6879;DHT22;3478;51.462;7.338;2024-02-26T15:49:31;8.40;99.90
6879;DHT22;3478;51.462;7.338;2024-02-26T15:54:38;8.20;99.90
6879;DHT22;3478;51.462;7.338;2024-02-26T15:59:42;8.20;99.90
6879;DHT22;3478;51.462;7.338;2024-02-26T16:04:45;8.00;99.90
6879;DHT22;3478;51.462;7.338;2024-02-26T16:09:50;7.90;99.90
6879;DHT22;3478;51.462;7.338;2024-02-26T16:14:52;7.90;99.90
6879;DHT22;3478;51.462;7.338;2024-02-26T16:19:55;7.90;99.90
6879;DHT22;3478;51.462;7.338;2024-02-26T16:24:58;7.80;99.90
6879;DHT22;3478;51.462;7.338;2024-02-26T16:30:00;7.80;99.90
6879;DHT22;3478;51.462;7.338;2024-02-26T16:35:04;7.80;99.90
6879;DHT22;3478;51.462;7.338;2024-02-26T16:40:07;7.60;99.90
6879;DHT22;3478;51.462;7.338;2024-02-26T16:45:10;7.70;99.90
6879;DHT22;3478;51.462;7.338;2024-02-26T16:50:14;7.60;99.90
6879;DHT22;3478;51.462;7.338;2024-02-26T16:55:16;7.60;99.90
6879;DHT22;3478;51.462;7.338;2024-02-26T17:00:19;7.50;99.90
6879;DHT22;3478;51.462;7.338;2024-02-26T17:05:23;7.40;99.90
6879;DHT22;3478;51.462;7.338;2024-02-26T17:10:28;7.30;99.90
6879;DHT22;3478;51.462;7.338;2024-02-26T17:15:31;7.30;99.90
6879;DHT22;3478;51.462;7.338;2024-02-26T17:20:34;7.30;99.90
6879;DHT22;3478;51.462;7.338;2024-02-26T17:25:38;7.20;99.90
6879;DHT22;3478;51.462;7.338;2024-02-26T17:30:40;7.20;99.90
6879;DHT22;3478;51.462;7.338;2024-02-26T17:35:43;7.10;99.90
6879;DHT22;3478;51.462;7.338;2024-02-26T17:40:45;7.10;99.90
6879;DHT22;3478;51.462;7.338;2024-02-26T17:45:47;7.10;99.90
6879;DHT22;3478;51.462;7.338;2024-02-26T17:50:51;7.00;99.90
6879;DHT22;3478;51.462;7.338;2024-02-26T17:55:54;7.00;99.90
6879;DHT22;3478;51.462;7.338;2024-02-26T18:00:56;6.90;99.90
6879;DHT22;3478;51.462;7.338;2024-02-26T18:06:00;6.90;99.90
6879;DHT22;3478;51.462;7.338;2024-02-26T18:11:02;6.90;99.90
6879;DHT22;3478;51.462;7.338;2024-02-26T18:16:05;7.00;99.90
6879;DHT22;3478;51.462;7.338;2024-02-26T18:21:10;7.00;99.90
6879;DHT22;3478;51.462;7.338;2024-02-26T18:26:13;7.00;99.90
6879;DHT22;3478;51.462;7.338;2024-02-26T18:31:19;7.10;99.90
6879;DHT22;3478;51.462;7.338;2024-02-26T18:48:25;7.20;99.90
6879;DHT22;3478;51.462;7.338;2024-02-26T18:53:27;7.20;99.90
6879;DHT22;3478;51.462;7.338;2024-02-26T18:58:29;7.30;99.90
6879;DHT22;3478;51.462;7.338;2024-02-26T19:03:32;7.40;99.90
6879;DHT22;3478;51.462;7.338;2024-02-26T19:08:35;7.40;99.90
6879;DHT22;3478;51.462;7.338;2024-02-26T19:13:38;7.40;99.90
6879;DHT22;3478;51.462;7.338;2024-02-26T19:18:46;7.50;99.90
6879;DHT22;3478;51.462;7.338;2024-02-26T19:23:48;7.40;99.90
6879;DHT22;3478;51.462;7.338;2024-02-26T19:28:50;7.40;99.90
6879;DHT22;3478;51.462;7.338;2024-02-26T19:33:53;7.40;99.90
6879;DHT22;3478;51.462;7.338;2024-02-26T19:38:55;7.40;99.90
6879;DHT22;3478;51.462;7.338;2024-02-26T19:43:57;7.60;99.90
6879;DHT22;3478;51.462;7.338;2024-02-26T19:49:00;7.50;99.90
6879;DHT22;3478;51.462;7.338;2024-02-26T19:54:02;7.50;99.90
6879;DHT22;3478;51.462;7.338;2024-02-26T19:59:05;7.40;99.90
6879;DHT22;3478;51.462;7.338;2024-02-26T20:04:08;7.50;99.90
6879;DHT22;3478;51.462;7.338;2024-02-26T20:09:13;7.40;99.90
6879;DHT22;3478;51.462;7.338;2024-02-26T20:14:15;7.50;99.90
6879;DHT22;3478;51.462;7.338;2024-02-26T20:19:18;7.50;99.90
6879;DHT22;3478;51.462;7.338;2024-02-26T20:24:20;7.50;99.90
6879;DHT22;3478;51.462;7.338;2024-02-26T20:29:22;7.40;99.90
6879;DHT22;3478;51.462;7.338;2024-02-26T20:34:26;7.40;99.90
6879;DHT22;3478;51.462;7.338;2024-02-26T20:39:28;7.30;99.90
6879;DHT22;3478;51.462;7.338;2024-02-26T20:44:30;7.30;99.90
6879;DHT22;3478;51.462;7.338;2024-02-26T20:49:34;7.30;99.90
6879;DHT22;3478;51.462;7.338;2024-02-26T20:54:36;7.30;99.90
6879;DHT22;3478;51.462;7.338;2024-02-26T20:59:38;7.20;99.90
6879;DHT22;3478;51.462;7.338;2024-02-26T21:04:43;7.30;99.90
6879;DHT22;3478;51.462;7.338;2024-02-26T21:09:45;7.20;99.90
6879;DHT22;3478;51.462;7.338;2024-02-26T21:14:47;7.30;99.90
6879;DHT22;3478;51.462;7.338;2024-02-26T21:19:50;7.30;99.90
6879;DHT22;3478;51.462;7.338;2024-02-26T21:24:53;7.20;99.90
6879;DHT22;3478;51.462;7.338;2024-02-26T21:29:57;7.30;99.90
6879;DHT22;3478;51.462;7.338;2024-02-26T21:35:01;7.30;99.90
6879;DHT22;3478;51.462;7.338;2024-02-26T21:40:03;7.30;99.90
6879;DHT22;3478;51.462;7.338;2024-02-26T21:45:06;7.20;99.90
6879;DHT22;3478;51.462;7.338;2024-02-26T21:50:09;7.10;99.90
6879;DHT22;3478;51.462;7.338;2024-02-26T21:55:11;7.20;99.90
6879;DHT22;3478;51.462;7.338;2024-02-26T22:00:14;7.20;99.90
6879;DHT22;3478;51.462;7.338;2024-02-26T22:05:17;7.20;99.90
6879;DHT22;3478;51.462;7.338;2024-02-26T22:10:19;7.00;99.90
6879;DHT22;3478;51.462;7.338;2024-02-26T22:15:21;7.00;99.90
6879;DHT22;3478;51.462;7.338;2024-02-26T22:20:26;6.90;99.90
6879;DHT22;3478;51.462;7.338;2024-02-26T22:25:28;7.10;99.90
6879;DHT22;3478;51.462;7.338;2024-02-26T22:30:30;7.00;99.90
6879;DHT22;3478;51.462;7.338;2024-02-26T22:35:33;7.00;99.90
6879;DHT22;3478;51.462;7.338;2024-02-26T22:40:36;7.00;99.90
6879;DHT22;3478;51.462;7.338;2024-02-26T22:45:38;7.10;99.90
6879;DHT22;3478;51.462;7.338;2024-02-26T22:50:41;7.10;99.90
6879;DHT22;3478;51.462;7.338;2024-02-26T22:55:44;7.00;99.90
6879;DHT22;3478;51.462;7.338;2024-02-26T23:00:50;6.80;99.90
6879;DHT22;3478;51.462;7.338;2024-02-26T23:05:54;6.70;99.90
6879;DHT22;3478;51.462;7.338;2024-02-26T23:10:56;6.70;99.90
6879;DHT22;3478;51.462;7.338;2024-02-26T23:15:58;6.70;99.90
6879;DHT22;3478;51.462;7.338;2024-02-26T23:21:01;6.80;99.90
6879;DHT22;3478;51.462;7.338;2024-02-26T23:26:03;6.70;99.90
6879;DHT22;3478;51.462;7.338;2024-02-26T23:31:05;6.60;99.90
6879;DHT22;3478;51.462;7.338;2024-02-26T23:36:09;6.60;99.90
6879;DHT22;3478;51.462;7.338;2024-02-26T23:41:11;6.50;99.90
6879;DHT22;3478;51.462;7.338;2024-02-26T23:46:14;6.40;99.90
6879;DHT22;3478;51.462;7.338;2024-02-26T23:51:17;6.50;99.90
6879;DHT22;3478;51.462;7.338;2024-02-26T23:56:20;6.40;99.90
